Repubbli Del Brasile — IBZB — position and weather

sailwx.info

Track history (hours):
 
Tides and Currents Weather Stations Pressure Air Temp Water Temp Dewpoint Dewpoint Depression Visibility Wind Speed Wind Dir Waves Ship Positions

Repubbli Del Brasile

Last reported at 2016-Feb-06 01:33 UTC. Time now 2016-Feb-06 07:13 UTC.
Position N 43°06' E 010°02'.

Length 209 m; draft 9.4 m.

Type: Ship (hazmat cat B). MMSI: 247310000.

Date/timePositionNaut miles runAvg speedWind from/ knotsBaromVisibWave heightAir tempDewpointWater temp
2016-Feb-06 01:33N 43°06' E 010°02'1514.7
2016-Feb-06 00:34N 43°20' E 010°07'1313.0
2016-Feb-05 23:33N 43°32' E 010°15'3 3.1
2016-Feb-05 22:33N 43°34' E 010°18'0 0.0
2016-Feb-05 21:32N 43°34' E 010°18'0 0.0
2016-Feb-05 20:31N 43°34' E 010°18'0 0.0
2016-Feb-05 19:31N 43°34' E 010°18'0 0.0
2016-Feb-05 18:34N 43°34' E 010°18'0 0.0
2016-Feb-05 17:33N 43°34' E 010°18'0 0.0
2016-Feb-05 16:33N 43°34' E 010°18'0 0.0
2016-Feb-05 15:32N 43°34' E 010°18'0 0.0
2016-Feb-05 14:29N 43°34' E 010°18'0 0.0
2016-Feb-05 05:33N 43°34' E 010°18'5 0.7
2016-Feb-04 22:32N 43°30' E 010°16'1 0.8
2016-Feb-04 21:32N 43°29' E 010°17'0 0.0
2016-Feb-04 20:32N 43°29' E 010°17'0 0.1
2016-Feb-04 19:31N 43°29' E 010°17'0 0.0
2016-Feb-04 18:31N 43°29' E 010°17'0 0.0
2016-Feb-04 17:33N 43°29' E 010°17'0 0.0
2016-Feb-04 16:33N 43°29' E 010°17'0 0.0
2016-Feb-04 15:33N 43°29' E 010°17'0 0.0
2016-Feb-04 14:32N 43°29' E 010°16'1 1.3
2016-Feb-04 13:34N 43°29' E 010°15'1212.2
2016-Feb-04 12:33N 43°30' E 009°58'1414.3
2016-Feb-04 11:33N 43°38' E 009°42'1514.5
2016-Feb-04 10:33N 43°47' E 009°26'1414.3
2016-Feb-04 09:33N 43°57' E 009°12'1514.6
2016-Feb-04 08:33N 44°11' E 009°04'1413.8
2016-Feb-04 07:33N 44°23' E 008°56'2 2.4
2016-Feb-04 06:32N 44°24' E 008°53'0 0.0
2016-Feb-04 05:32N 44°24' E 008°53'0 0.0
2016-Feb-04 04:31N 44°24' E 008°53'0 0.0
2016-Feb-04 03:31N 44°24' E 008°53'0 0.0
2016-Feb-04 02:33N 44°24' E 008°53'0 0.0
2016-Feb-04 01:33N 44°24' E 008°53'0 0.0
2016-Feb-04 00:32N 44°24' E 008°53'0 0.0
2016-Feb-03 23:32N 44°24' E 008°53'0 0.0
2016-Feb-03 22:32N 44°24' E 008°53'0 0.0
2016-Feb-03 21:31N 44°24' E 008°53'0 0.0
2016-Feb-03 20:31N 44°24' E 008°53'0 0.0
2016-Feb-03 19:33N 44°24' E 008°53'0 0.0
2016-Feb-03 18:33N 44°24' E 008°53'0 0.0
2016-Feb-03 17:32N 44°24' E 008°53'0 0.0
2016-Feb-03 16:32N 44°24' E 008°53'0 0.0
2016-Feb-03 15:32N 44°24' E 008°53'0 0.0
2016-Feb-03 14:31N 44°24' E 008°53'0 0.0
2016-Feb-03 13:31N 44°24' E 008°53'0 0.0
2016-Feb-03 12:33N 44°24' E 008°53'0 0.0
2016-Feb-03 11:33N 44°24' E 008°53'0 0.0
2016-Feb-03 10:32N 44°24' E 008°53'0 0.0
2016-Feb-03 09:32N 44°24' E 008°53'0 0.0
2016-Feb-03 08:32N 44°24' E 008°53'0 0.0
2016-Feb-03 07:31N 44°24' E 008°53'0 0.0
2016-Feb-03 06:31N 44°24' E 008°53'0 0.0
2016-Feb-03 05:33N 44°24' E 008°53'0 0.0
2016-Feb-03 04:33N 44°24' E 008°53'0 0.0
2016-Feb-03 03:29N 44°24' E 008°53'0 0.0
2016-Feb-03 02:29N 44°24' E 008°53'0 0.0
2016-Feb-03 01:32N 44°24' E 008°53'0 0.0
2016-Feb-03 00:31N 44°24' E 008°53'0 0.0
2016-Feb-02 23:31N 44°24' E 008°53'0 0.0
2016-Feb-02 22:33N 44°24' E 008°53'0 0.0
2016-Feb-02 21:33N 44°24' E 008°53'0 0.0
2016-Feb-02 20:32N 44°24' E 008°53'0 0.0
2016-Feb-02 19:32N 44°24' E 008°53'0 0.0
2016-Feb-02 18:28N 44°24' E 008°53'0 0.0
2016-Feb-02 17:28N 44°24' E 008°53'0 0.0
2016-Feb-02 16:31N 44°24' E 008°53'0 0.0
2016-Feb-02 15:33N 44°24' E 008°53'0 0.0
2016-Feb-02 14:33N 44°24' E 008°53'0 0.0
2016-Feb-02 13:29N 44°24' E 008°53'0 0.0
2016-Feb-02 12:32N 44°24' E 008°53'0 0.0
2016-Feb-02 11:31N 44°24' E 008°53'0 0.0
2016-Feb-02 10:31N 44°24' E 008°53'0 0.0
2016-Feb-02 09:31N 44°24' E 008°53'2 1.6
2016-Feb-02 08:33N 44°24' E 008°55'7 6.7
2016-Feb-02 07:33N 44°17' E 008°54'1515.2
2016-Feb-02 06:33N 44°07' E 008°38'1514.8
2016-Feb-02 05:33N 43°58' E 008°22'5015.2
2016-Feb-02 02:17N 43°26' E 007°29'1115.6
2016-Feb-02 01:33N 43°19' E 007°17'8912.8
2016-Feb-01 18:33N 43°09' E 005°15'1010.1
2016-Feb-01 17:33N 43°19' E 005°15'4 0.1
2016-Jan-30 17:31N 43°21' E 005°20'1010.3
2016-Jan-30 16:33N 43°13' E 005°11'1514.6
2016-Jan-30 15:33N 43°01' E 005°01'1515.0
2016-Jan-30 14:33N 42°49' E 004°49'13515.0
2016-Jan-30 05:33N 41°13' E 002°42'1514.9
2016-Jan-30 04:33N 41°04' E 002°25'1515.0
2016-Jan-30 03:33N 40°55' E 002°09'1515.0
2016-Jan-30 02:33N 40°46' E 001°53'1514.8
2016-Jan-30 01:33N 40°38' E 001°38'1514.7
2016-Jan-30 00:33N 40°29' E 001°22'1514.7
2016-Jan-29 23:33N 40°20' E 001°07'1514.7
2016-Jan-29 22:32N 40°12' E 000°50'6414.8
2016-Jan-29 18:12N 39°29' W 000°12'6 7.8
2016-Jan-29 17:28N 39°26' W 000°18'0 0.0
2016-Jan-29 16:31N 39°27' W 000°18'0 0.0
2016-Jan-29 15:31N 39°27' W 000°18'0 0.0
2016-Jan-29 14:33N 39°27' W 000°18'0 0.0
2016-Jan-29 13:33N 39°27' W 000°18'0 0.0
2016-Jan-29 12:23N 39°27' W 000°18'0 0.0
2016-Jan-29 11:32N 39°27' W 000°18'0 0.0
2016-Jan-29 10:31N 39°27' W 000°18'0 0.0
2016-Jan-29 09:31N 39°27' W 000°18'0 0.0
2016-Jan-29 08:31N 39°27' W 000°18'0 0.0
2016-Jan-29 07:33N 39°27' W 000°18'0 0.0
2016-Jan-29 06:33N 39°27' W 000°18'0 0.0
2016-Jan-29 05:32N 39°27' W 000°18'0 0.3
2016-Jan-29 04:34N 39°26' W 000°18'8812.4
2016-Jan-28 21:26N 37°58' W 000°09'1416.2
2016-Jan-28 20:33N 37°47' W 000°19'1616.3
2016-Jan-28 19:33N 37°33' W 000°31'1616.2
2016-Jan-28 18:33N 37°23' W 000°47'1616.3
2016-Jan-28 17:33N 37°12' W 001°02'8916.6
2016-Jan-28 12:12N 36°20' W 002°32'13417.5
2016-Jan-28 04:33N 35°60' W 005°15'2017.9
2016-Jan-28 03:26N 35°54' W 005°39'  
Track history (hours):
 
Tides and Currents Weather Stations Pressure Air Temp Water Temp Dewpoint Dewpoint Depression Visibility Wind Speed Wind Dir Waves Ship Positions

Repubbli Del Brasile

Last reported at 2016-Feb-06 01:33 UTC. Time now 2016-Feb-06 07:13 UTC.
Position N 43°06' E 010°02'.

Length 209 m; draft 9.4 m.

Type: Ship (hazmat cat B). MMSI: 247310000.

Date/timePositionNaut miles runAvg speedWind from/ knotsBaromVisibWave heightAir tempDewpointWater temp
2016-Feb-06 01:33N 43°06' E 010°02'1514.7
2016-Feb-06 00:34N 43°20' E 010°07'1313.0
2016-Feb-05 23:33N 43°32' E 010°15'3 3.1
2016-Feb-05 22:33N 43°34' E 010°18'0 0.0
2016-Feb-05 21:32N 43°34' E 010°18'0 0.0
2016-Feb-05 20:31N 43°34' E 010°18'0 0.0
2016-Feb-05 19:31N 43°34' E 010°18'0 0.0
2016-Feb-05 18:34N 43°34' E 010°18'0 0.0
2016-Feb-05 17:33N 43°34' E 010°18'0 0.0
2016-Feb-05 16:33N 43°34' E 010°18'0 0.0
2016-Feb-05 15:32N 43°34' E 010°18'0 0.0
2016-Feb-05 14:29N 43°34' E 010°18'0 0.0
2016-Feb-05 05:33N 43°34' E 010°18'5 0.7
2016-Feb-04 22:32N 43°30' E 010°16'1 0.8
2016-Feb-04 21:32N 43°29' E 010°17'0 0.0
2016-Feb-04 20:32N 43°29' E 010°17'0 0.1
2016-Feb-04 19:31N 43°29' E 010°17'0 0.0
2016-Feb-04 18:31N 43°29' E 010°17'0 0.0
2016-Feb-04 17:33N 43°29' E 010°17'0 0.0
2016-Feb-04 16:33N 43°29' E 010°17'0 0.0
2016-Feb-04 15:33N 43°29' E 010°17'0 0.0
2016-Feb-04 14:32N 43°29' E 010°16'1 1.3
2016-Feb-04 13:34N 43°29' E 010°15'1212.2
2016-Feb-04 12:33N 43°30' E 009°58'1414.3
2016-Feb-04 11:33N 43°38' E 009°42'1514.5
2016-Feb-04 10:33N 43°47' E 009°26'1414.3
2016-Feb-04 09:33N 43°57' E 009°12'1514.6
2016-Feb-04 08:33N 44°11' E 009°04'1413.8
2016-Feb-04 07:33N 44°23' E 008°56'2 2.4
2016-Feb-04 06:32N 44°24' E 008°53'0 0.0
2016-Feb-04 05:32N 44°24' E 008°53'0 0.0
2016-Feb-04 04:31N 44°24' E 008°53'0 0.0
2016-Feb-04 03:31N 44°24' E 008°53'0 0.0
2016-Feb-04 02:33N 44°24' E 008°53'0 0.0
2016-Feb-04 01:33N 44°24' E 008°53'0 0.0
2016-Feb-04 00:32N 44°24' E 008°53'0 0.0
2016-Feb-03 23:32N 44°24' E 008°53'0 0.0
2016-Feb-03 22:32N 44°24' E 008°53'0 0.0
2016-Feb-03 21:31N 44°24' E 008°53'0 0.0
2016-Feb-03 20:31N 44°24' E 008°53'0 0.0
2016-Feb-03 19:33N 44°24' E 008°53'0 0.0
2016-Feb-03 18:33N 44°24' E 008°53'0 0.0
2016-Feb-03 17:32N 44°24' E 008°53'0 0.0
2016-Feb-03 16:32N 44°24' E 008°53'0 0.0
2016-Feb-03 15:32N 44°24' E 008°53'0 0.0
2016-Feb-03 14:31N 44°24' E 008°53'0 0.0
2016-Feb-03 13:31N 44°24' E 008°53'0 0.0
2016-Feb-03 12:33N 44°24' E 008°53'0 0.0
2016-Feb-03 11:33N 44°24' E 008°53'0 0.0
2016-Feb-03 10:32N 44°24' E 008°53'0 0.0
2016-Feb-03 09:32N 44°24' E 008°53'0 0.0
2016-Feb-03 08:32N 44°24' E 008°53'0 0.0
2016-Feb-03 07:31N 44°24' E 008°53'0 0.0
2016-Feb-03 06:31N 44°24' E 008°53'0 0.0
2016-Feb-03 05:33N 44°24' E 008°53'0 0.0
2016-Feb-03 04:33N 44°24' E 008°53'0 0.0
2016-Feb-03 03:29N 44°24' E 008°53'0 0.0
2016-Feb-03 02:29N 44°24' E 008°53'0 0.0
2016-Feb-03 01:32N 44°24' E 008°53'0 0.0
2016-Feb-03 00:31N 44°24' E 008°53'0 0.0
2016-Feb-02 23:31N 44°24' E 008°53'0 0.0
2016-Feb-02 22:33N 44°24' E 008°53'0 0.0
2016-Feb-02 21:33N 44°24' E 008°53'0 0.0
2016-Feb-02 20:32N 44°24' E 008°53'0 0.0
2016-Feb-02 19:32N 44°24' E 008°53'0 0.0
2016-Feb-02 18:28N 44°24' E 008°53'0 0.0
2016-Feb-02 17:28N 44°24' E 008°53'0 0.0
2016-Feb-02 16:31N 44°24' E 008°53'0 0.0
2016-Feb-02 15:33N 44°24' E 008°53'0 0.0
2016-Feb-02 14:33N 44°24' E 008°53'0 0.0
2016-Feb-02 13:29N 44°24' E 008°53'0 0.0
2016-Feb-02 12:32N 44°24' E 008°53'0 0.0
2016-Feb-02 11:31N 44°24' E 008°53'0 0.0
2016-Feb-02 10:31N 44°24' E 008°53'0 0.0
2016-Feb-02 09:31N 44°24' E 008°53'2 1.6
2016-Feb-02 08:33N 44°24' E 008°55'7 6.7
2016-Feb-02 07:33N 44°17' E 008°54'1515.2
2016-Feb-02 06:33N 44°07' E 008°38'1514.8
2016-Feb-02 05:33N 43°58' E 008°22'5015.2
2016-Feb-02 02:17N 43°26' E 007°29'1115.6
2016-Feb-02 01:33N 43°19' E 007°17'8912.8
2016-Feb-01 18:33N 43°09' E 005°15'1010.1
2016-Feb-01 17:33N 43°19' E 005°15'4 0.1
2016-Jan-30 17:31N 43°21' E 005°20'1010.3
2016-Jan-30 16:33N 43°13' E 005°11'1514.6
2016-Jan-30 15:33N 43°01' E 005°01'1515.0
2016-Jan-30 14:33N 42°49' E 004°49'13515.0
2016-Jan-30 05:33N 41°13' E 002°42'1514.9
2016-Jan-30 04:33N 41°04' E 002°25'1515.0
2016-Jan-30 03:33N 40°55' E 002°09'1515.0
2016-Jan-30 02:33N 40°46' E 001°53'1514.8
2016-Jan-30 01:33N 40°38' E 001°38'1514.7
2016-Jan-30 00:33N 40°29' E 001°22'1514.7
2016-Jan-29 23:33N 40°20' E 001°07'1514.7
2016-Jan-29 22:32N 40°12' E 000°50'6414.8
2016-Jan-29 18:12N 39°29' W 000°12'6 7.8
2016-Jan-29 17:28N 39°26' W 000°18'0 0.0
2016-Jan-29 16:31N 39°27' W 000°18'0 0.0
2016-Jan-29 15:31N 39°27' W 000°18'0 0.0
2016-Jan-29 14:33N 39°27' W 000°18'0 0.0
2016-Jan-29 13:33N 39°27' W 000°18'0 0.0
2016-Jan-29 12:23N 39°27' W 000°18'0 0.0
2016-Jan-29 11:32N 39°27' W 000°18'0 0.0
2016-Jan-29 10:31N 39°27' W 000°18'0 0.0
2016-Jan-29 09:31N 39°27' W 000°18'0 0.0
2016-Jan-29 08:31N 39°27' W 000°18'0 0.0
2016-Jan-29 07:33N 39°27' W 000°18'0 0.0
2016-Jan-29 06:33N 39°27' W 000°18'0 0.0
2016-Jan-29 05:32N 39°27' W 000°18'0 0.3
2016-Jan-29 04:34N 39°26' W 000°18'8812.4
2016-Jan-28 21:26N 37°58' W 000°09'1416.2
2016-Jan-28 20:33N 37°47' W 000°19'1616.3
2016-Jan-28 19:33N 37°33' W 000°31'1616.2
2016-Jan-28 18:33N 37°23' W 000°47'1616.3
2016-Jan-28 17:33N 37°12' W 001°02'8916.6
2016-Jan-28 12:12N 36°20' W 002°32'13417.5
2016-Jan-28 04:33N 35°60' W 005°15'2017.9
2016-Jan-28 03:26N 35°54' W 005°39'  

Dump ship's entire track history